sensor_id;sensor_type;location;lat;lon;timestamp;P1;durP1;ratioP1;P2;durP2;ratioP2
32407;SDS011;18869;55.970;37.502;2023-04-03T00:00:40;17.53;;;13.03;;
32407;SDS011;18869;55.970;37.502;2023-04-03T00:03:08;15.77;;;12.30;;
32407;SDS011;18869;55.970;37.502;2023-04-03T00:05:35;15.13;;;13.53;;
32407;SDS011;18869;55.970;37.502;2023-04-03T00:08:03;16.43;;;12.57;;
32407;SDS011;18869;55.970;37.502;2023-04-03T00:10:33;18.57;;;13.60;;
32407;SDS011;18869;55.970;37.502;2023-04-03T00:13:03;15.07;;;12.17;;
32407;SDS011;18869;55.970;37.502;2023-04-03T00:15:30;15.77;;;11.97;;
32407;SDS011;18869;55.970;37.502;2023-04-03T00:17:58;14.60;;;12.10;;
32407;SDS011;18869;55.970;37.502;2023-04-03T00:20:26;17.13;;;12.03;;
32407;SDS011;18869;55.970;37.502;2023-04-03T00:22:54;14.77;;;11.70;;
32407;SDS011;18869;55.970;37.502;2023-04-03T00:25:22;18.00;;;12.17;;
32407;SDS011;18869;55.970;37.502;2023-04-03T00:27:49;14.97;;;12.50;;
32407;SDS011;18869;55.970;37.502;2023-04-03T00:30:19;14.20;;;12.13;;
32407;SDS011;18869;55.970;37.502;2023-04-03T00:32:48;16.83;;;12.23;;
32407;SDS011;18869;55.970;37.502;2023-04-03T00:35:16;18.93;;;13.37;;
32407;SDS011;18869;55.970;37.502;2023-04-03T00:37:44;13.80;;;11.13;;
32407;SDS011;18869;55.970;37.502;2023-04-03T00:40:12;14.77;;;12.33;;
32407;SDS011;18869;55.970;37.502;2023-04-03T00:42:41;18.40;;;12.53;;
32407;SDS011;18869;55.970;37.502;2023-04-03T00:47:59;14.47;;;11.47;;
32407;SDS011;18869;55.970;37.502;2023-04-03T00:50:28;17.30;;;12.13;;
32407;SDS011;18869;55.970;37.502;2023-04-03T00:52:56;16.47;;;12.03;;
32407;SDS011;18869;55.970;37.502;2023-04-03T00:55:24;16.37;;;11.20;;
32407;SDS011;18869;55.970;37.502;2023-04-03T00:57:54;14.17;;;12.17;;
32407;SDS011;18869;55.970;37.502;2023-04-03T01:00:22;13.33;;;11.60;;
32407;SDS011;18869;55.970;37.502;2023-04-03T01:02:52;13.07;;;11.27;;
32407;SDS011;18869;55.970;37.502;2023-04-03T01:05:20;13.73;;;11.33;;
32407;SDS011;18869;55.970;37.502;2023-04-03T01:07:48;13.00;;;10.63;;
32407;SDS011;18869;55.970;37.502;2023-04-03T01:10:16;14.03;;;11.10;;
32407;SDS011;18869;55.970;37.502;2023-04-03T01:12:46;13.90;;;10.27;;
32407;SDS011;18869;55.970;37.502;2023-04-03T01:15:15;13.07;;;11.03;;
32407;SDS011;18869;55.970;37.502;2023-04-03T01:17:46;13.47;;;11.63;;
32407;SDS011;18869;55.970;37.502;2023-04-03T01:23:22;15.30;;;11.00;;
32407;SDS011;18869;55.970;37.502;2023-04-03T01:25:54;16.00;;;12.87;;
32407;SDS011;18869;55.970;37.502;2023-04-03T01:28:24;16.10;;;11.83;;
32407;SDS011;18869;55.970;37.502;2023-04-03T01:30:56;15.40;;;11.37;;
32407;SDS011;18869;55.970;37.502;2023-04-03T01:33:30;15.27;;;11.83;;
32407;SDS011;18869;55.970;37.502;2023-04-03T01:35:58;13.03;;;11.40;;
32407;SDS011;18869;55.970;37.502;2023-04-03T01:38:26;13.73;;;11.87;;
32407;SDS011;18869;55.970;37.502;2023-04-03T01:40:54;14.40;;;11.50;;
32407;SDS011;18869;55.970;37.502;2023-04-03T01:43:21;13.47;;;10.97;;
32407;SDS011;18869;55.970;37.502;2023-04-03T01:45:49;13.83;;;12.00;;
32407;SDS011;18869;55.970;37.502;2023-04-03T01:48:18;18.10;;;13.60;;
32407;SDS011;18869;55.970;37.502;2023-04-03T01:50:47;17.43;;;12.70;;
32407;SDS011;18869;55.970;37.502;2023-04-03T01:53:15;13.70;;;11.70;;
32407;SDS011;18869;55.970;37.502;2023-04-03T01:55:43;14.73;;;12.43;;
32407;SDS011;18869;55.970;37.502;2023-04-03T01:58:11;14.60;;;11.27;;
32407;SDS011;18869;55.970;37.502;2023-04-03T02:00:38;15.83;;;11.63;;
32407;SDS011;18869;55.970;37.502;2023-04-03T02:03:06;13.13;;;10.80;;
32407;SDS011;18869;55.970;37.502;2023-04-03T02:05:33;16.90;;;12.33;;
32407;SDS011;18869;55.970;37.502;2023-04-03T02:08:02;14.20;;;11.87;;
32407;SDS011;18869;55.970;37.502;2023-04-03T02:10:30;13.70;;;11.60;;
32407;SDS011;18869;55.970;37.502;2023-04-03T02:12:58;17.57;;;12.87;;
32407;SDS011;18869;55.970;37.502;2023-04-03T02:15:25;15.37;;;12.77;;
32407;SDS011;18869;55.970;37.502;2023-04-03T02:17:53;16.83;;;13.17;;
32407;SDS011;18869;55.970;37.502;2023-04-03T02:20:20;18.37;;;12.80;;
32407;SDS011;18869;55.970;37.502;2023-04-03T02:22:48;17.03;;;12.37;;
32407;SDS011;18869;55.970;37.502;2023-04-03T02:25:18;19.30;;;12.50;;
32407;SDS011;18869;55.970;37.502;2023-04-03T02:27:46;13.97;;;12.30;;
32407;SDS011;18869;55.970;37.502;2023-04-03T02:30:13;15.20;;;12.07;;
32407;SDS011;18869;55.970;37.502;2023-04-03T02:32:42;17.37;;;12.73;;
32407;SDS011;18869;55.970;37.502;2023-04-03T02:35:10;18.43;;;12.67;;
32407;SDS011;18869;55.970;37.502;2023-04-03T02:37:39;18.30;;;14.57;;
32407;SDS011;18869;55.970;37.502;2023-04-03T02:40:07;15.23;;;12.03;;
32407;SDS011;18869;55.970;37.502;2023-04-03T02:42:39;19.37;;;13.73;;
32407;SDS011;18869;55.970;37.502;2023-04-03T02:45:07;16.97;;;13.00;;
32407;SDS011;18869;55.970;37.502;2023-04-03T02:47:35;22.43;;;14.23;;
32407;SDS011;18869;55.970;37.502;2023-04-03T02:50:02;21.13;;;15.27;;
32407;SDS011;18869;55.970;37.502;2023-04-03T02:52:31;19.00;;;15.13;;
32407;SDS011;18869;55.970;37.502;2023-04-03T02:54:58;21.33;;;14.43;;
32407;SDS011;18869;55.970;37.502;2023-04-03T02:57:28;19.30;;;14.57;;
32407;SDS011;18869;55.970;37.502;2023-04-03T03:00:00;21.63;;;14.50;;
32407;SDS011;18869;55.970;37.502;2023-04-03T03:02:28;21.30;;;15.00;;
32407;SDS011;18869;55.970;37.502;2023-04-03T03:04:56;23.90;;;14.60;;
32407;SDS011;18869;55.970;37.502;2023-04-03T03:07:23;21.33;;;15.23;;
32407;SDS011;18869;55.970;37.502;2023-04-03T03:09:51;19.80;;;14.13;;
32407;SDS011;18869;55.970;37.502;2023-04-03T03:12:18;19.33;;;14.73;;
32407;SDS011;18869;55.970;37.502;2023-04-03T03:14:49;18.73;;;14.43;;
32407;SDS011;18869;55.970;37.502;2023-04-03T03:17:18;20.13;;;15.73;;
32407;SDS011;18869;55.970;37.502;2023-04-03T03:19:45;22.73;;;15.60;;
32407;SDS011;18869;55.970;37.502;2023-04-03T03:22:13;23.17;;;16.23;;
32407;SDS011;18869;55.970;37.502;2023-04-03T03:24:41;25.23;;;17.47;;
32407;SDS011;18869;55.970;37.502;2023-04-03T03:27:08;31.57;;;20.50;;
32407;SDS011;18869;55.970;37.502;2023-04-03T03:29:36;27.33;;;19.87;;
32407;SDS011;18869;55.970;37.502;2023-04-03T03:32:04;26.03;;;19.63;;
32407;SDS011;18869;55.970;37.502;2023-04-03T03:34:35;24.63;;;19.50;;
32407;SDS011;18869;55.970;37.502;2023-04-03T03:37:03;26.83;;;18.13;;
32407;SDS011;18869;55.970;37.502;2023-04-03T03:39:30;22.57;;;16.97;;
32407;SDS011;18869;55.970;37.502;2023-04-03T03:41:58;23.17;;;17.33;;
32407;SDS011;18869;55.970;37.502;2023-04-03T03:44:26;21.27;;;16.13;;
32407;SDS011;18869;55.970;37.502;2023-04-03T03:46:54;20.27;;;15.63;;
32407;SDS011;18869;55.970;37.502;2023-04-03T03:49:22;23.53;;;15.40;;
32407;SDS011;18869;55.970;37.502;2023-04-03T03:51:52;22.53;;;14.73;;
32407;SDS011;18869;55.970;37.502;2023-04-03T03:54:19;18.00;;;13.00;;
32407;SDS011;18869;55.970;37.502;2023-04-03T03:56:47;19.60;;;13.47;;
32407;SDS011;18869;55.970;37.502;2023-04-03T03:59:14;20.17;;;13.30;;
32407;SDS011;18869;55.970;37.502;2023-04-03T04:01:43;20.10;;;15.03;;
32407;SDS011;18869;55.970;37.502;2023-04-03T04:04:11;21.53;;;15.63;;
32407;SDS011;18869;55.970;37.502;2023-04-03T04:06:39;20.17;;;14.83;;
32407;SDS011;18869;55.970;37.502;2023-04-03T04:09:09;18.37;;;14.10;;
32407;SDS011;18869;55.970;37.502;2023-04-03T04:11:37;19.70;;;13.63;;
32407;SDS011;18869;55.970;37.502;2023-04-03T04:14:06;17.70;;;13.53;;
32407;SDS011;18869;55.970;37.502;2023-04-03T04:16:36;20.37;;;13.43;;
32407;SDS011;18869;55.970;37.502;2023-04-03T04:19:05;19.73;;;14.67;;
32407;SDS011;18869;55.970;37.502;2023-04-03T04:21:33;19.23;;;13.97;;
32407;SDS011;18869;55.970;37.502;2023-04-03T04:24:01;15.10;;;12.53;;
32407;SDS011;18869;55.970;37.502;2023-04-03T04:26:31;16.93;;;12.80;;
32407;SDS011;18869;55.970;37.502;2023-04-03T04:28:58;16.27;;;13.20;;
32407;SDS011;18869;55.970;37.502;2023-04-03T04:31:30;17.40;;;12.20;;
32407;SDS011;18869;55.970;37.502;2023-04-03T04:33:58;17.50;;;12.67;;
32407;SDS011;18869;55.970;37.502;2023-04-03T04:36:26;21.30;;;15.00;;
32407;SDS011;18869;55.970;37.502;2023-04-03T04:38:54;18.70;;;14.37;;
32407;SDS011;18869;55.970;37.502;2023-04-03T04:41:24;16.87;;;13.33;;
32407;SDS011;18869;55.970;37.502;2023-04-03T04:43:53;16.53;;;13.60;;
32407;SDS011;18869;55.970;37.502;2023-04-03T04:46:21;20.37;;;13.73;;
32407;SDS011;18869;55.970;37.502;2023-04-03T04:48:50;17.43;;;13.93;;
32407;SDS011;18869;55.970;37.502;2023-04-03T04:51:18;20.27;;;13.63;;
32407;SDS011;18869;55.970;37.502;2023-04-03T04:53:45;17.33;;;13.73;;
32407;SDS011;18869;55.970;37.502;2023-04-03T04:56:14;16.67;;;13.63;;
32407;SDS011;18869;55.970;37.502;2023-04-03T04:58:42;17.40;;;15.17;;
32407;SDS011;18869;55.970;37.502;2023-04-03T05:01:11;17.63;;;13.47;;
32407;SDS011;18869;55.970;37.502;2023-04-03T05:03:39;18.67;;;14.87;;
32407;SDS011;18869;55.970;37.502;2023-04-03T05:06:10;22.00;;;14.03;;
32407;SDS011;18869;55.970;37.502;2023-04-03T05:08:37;18.23;;;14.00;;
32407;SDS011;18869;55.970;37.502;2023-04-03T05:11:06;18.87;;;13.80;;
32407;SDS011;18869;55.970;37.502;2023-04-03T05:13:36;14.67;;;12.60;;
32407;SDS011;18869;55.970;37.502;2023-04-03T05:16:04;23.33;;;13.83;;
32407;SDS011;18869;55.970;37.502;2023-04-03T05:18:34;16.23;;;13.43;;
32407;SDS011;18869;55.970;37.502;2023-04-03T05:21:02;20.27;;;13.90;;
32407;SDS011;18869;55.970;37.502;2023-04-03T05:23:30;15.90;;;13.93;;
32407;SDS011;18869;55.970;37.502;2023-04-03T05:25:59;21.97;;;14.43;;
32407;SDS011;18869;55.970;37.502;2023-04-03T05:28:27;17.47;;;14.40;;
32407;SDS011;18869;55.970;37.502;2023-04-03T05:30:55;16.90;;;14.30;;
32407;SDS011;18869;55.970;37.502;2023-04-03T05:33:26;17.20;;;13.83;;
32407;SDS011;18869;55.970;37.502;2023-04-03T05:35:57;19.10;;;14.40;;
32407;SDS011;18869;55.970;37.502;2023-04-03T05:38:30;17.03;;;12.87;;
32407;SDS011;18869;55.970;37.502;2023-04-03T05:40:57;19.87;;;14.37;;
32407;SDS011;18869;55.970;37.502;2023-04-03T05:43:25;16.33;;;13.07;;
32407;SDS011;18869;55.970;37.502;2023-04-03T05:45:53;17.03;;;13.50;;
32407;SDS011;18869;55.970;37.502;2023-04-03T05:48:21;17.43;;;13.43;;
32407;SDS011;18869;55.970;37.502;2023-04-03T05:50:49;23.13;;;14.03;;
32407;SDS011;18869;55.970;37.502;2023-04-03T05:53:20;19.43;;;13.73;;
32407;SDS011;18869;55.970;37.502;2023-04-03T05:55:49;18.37;;;14.23;;
32407;SDS011;18869;55.970;37.502;2023-04-03T05:58:17;16.93;;;12.93;;
32407;SDS011;18869;55.970;37.502;2023-04-03T06:00:45;19.27;;;13.53;;
32407;SDS011;18869;55.970;37.502;2023-04-03T06:03:13;18.27;;;13.70;;
32407;SDS011;18869;55.970;37.502;2023-04-03T06:05:41;18.60;;;13.10;;
32407;SDS011;18869;55.970;37.502;2023-04-03T06:08:09;20.87;;;13.97;;
32407;SDS011;18869;55.970;37.502;2023-04-03T06:10:40;17.23;;;13.60;;
32407;SDS011;18869;55.970;37.502;2023-04-03T06:13:07;20.30;;;14.53;;
32407;SDS011;18869;55.970;37.502;2023-04-03T06:15:35;20.77;;;13.13;;
32407;SDS011;18869;55.970;37.502;2023-04-03T06:18:03;18.57;;;13.17;;
32407;SDS011;18869;55.970;37.502;2023-04-03T06:20:33;18.43;;;12.87;;
32407;SDS011;18869;55.970;37.502;2023-04-03T06:23:01;17.50;;;12.93;;
32407;SDS011;18869;55.970;37.502;2023-04-03T06:25:29;21.70;;;12.73;;
32407;SDS011;18869;55.970;37.502;2023-04-03T06:27:58;18.97;;;12.63;;
32407;SDS011;18869;55.970;37.502;2023-04-03T06:30:26;19.23;;;13.33;;
32407;SDS011;18869;55.970;37.502;2023-04-03T06:32:54;23.13;;;13.43;;
32407;SDS011;18869;55.970;37.502;2023-04-03T06:35:22;20.37;;;14.20;;
32407;SDS011;18869;55.970;37.502;2023-04-03T06:37:50;21.70;;;13.43;;
32407;SDS011;18869;55.970;37.502;2023-04-03T06:40:21;16.40;;;12.03;;
32407;SDS011;18869;55.970;37.502;2023-04-03T06:42:49;14.60;;;12.50;;
32407;SDS011;18869;55.970;37.502;2023-04-03T06:45:19;14.97;;;12.53;;
32407;SDS011;18869;55.970;37.502;2023-04-03T06:47:47;15.80;;;13.20;;
32407;SDS011;18869;55.970;37.502;2023-04-03T06:50:15;19.07;;;13.10;;
32407;SDS011;18869;55.970;37.502;2023-04-03T06:52:42;18.13;;;13.17;;
32407;SDS011;18869;55.970;37.502;2023-04-03T06:55:12;19.63;;;12.87;;
32407;SDS011;18869;55.970;37.502;2023-04-03T06:57:39;18.63;;;13.57;;
32407;SDS011;18869;55.970;37.502;2023-04-03T07:00:07;15.47;;;11.90;;
32407;SDS011;18869;55.970;37.502;2023-04-03T07:02:38;16.87;;;13.23;;
32407;SDS011;18869;55.970;37.502;2023-04-03T07:05:06;16.50;;;12.20;;
32407;SDS011;18869;55.970;37.502;2023-04-03T07:07:34;17.47;;;12.23;;
32407;SDS011;18869;55.970;37.502;2023-04-03T07:10:04;15.60;;;12.07;;
32407;SDS011;18869;55.970;37.502;2023-04-03T07:12:32;15.20;;;11.23;;
32407;SDS011;18869;55.970;37.502;2023-04-03T07:15:00;15.37;;;11.13;;
32407;SDS011;18869;55.970;37.502;2023-04-03T07:17:29;15.57;;;11.77;;
32407;SDS011;18869;55.970;37.502;2023-04-03T07:19:59;16.80;;;10.80;;
32407;SDS011;18869;55.970;37.502;2023-04-03T07:22:30;13.97;;;10.87;;
32407;SDS011;18869;55.970;37.502;2023-04-03T07:24:58;13.83;;;11.13;;
32407;SDS011;18869;55.970;37.502;2023-04-03T07:27:27;11.83;;;9.77;;
32407;SDS011;18869;55.970;37.502;2023-04-03T07:29:56;13.27;;;10.40;;
32407;SDS011;18869;55.970;37.502;2023-04-03T07:32:23;15.17;;;10.53;;
32407;SDS011;18869;55.970;37.502;2023-04-03T07:34:51;17.80;;;10.73;;
32407;SDS011;18869;55.970;37.502;2023-04-03T07:37:20;12.63;;;10.50;;
32407;SDS011;18869;55.970;37.502;2023-04-03T07:39:48;16.27;;;10.23;;
32407;SDS011;18869;55.970;37.502;2023-04-03T07:42:16;16.13;;;10.57;;
32407;SDS011;18869;55.970;37.502;2023-04-03T07:44:44;16.80;;;9.53;;
32407;SDS011;18869;55.970;37.502;2023-04-03T07:47:11;16.67;;;10.13;;
32407;SDS011;18869;55.970;37.502;2023-04-03T07:49:41;17.03;;;10.47;;
32407;SDS011;18869;55.970;37.502;2023-04-03T07:52:11;13.37;;;9.83;;
32407;SDS011;18869;55.970;37.502;2023-04-03T07:54:40;13.83;;;11.77;;
32407;SDS011;18869;55.970;37.502;2023-04-03T07:57:08;15.70;;;10.90;;
32407;SDS011;18869;55.970;37.502;2023-04-03T07:59:35;14.23;;;10.63;;
32407;SDS011;18869;55.970;37.502;2023-04-03T08:02:03;16.90;;;11.27;;
32407;SDS011;18869;55.970;37.502;2023-04-03T08:04:31;15.10;;;11.20;;
32407;SDS011;18869;55.970;37.502;2023-04-03T08:06:58;15.70;;;11.27;;
32407;SDS011;18869;55.970;37.502;2023-04-03T08:09:26;13.27;;;10.83;;
32407;SDS011;18869;55.970;37.502;2023-04-03T08:11:55;13.47;;;10.20;;
32407;SDS011;18869;55.970;37.502;2023-04-03T08:14:22;16.67;;;10.17;;
32407;SDS011;18869;55.970;37.502;2023-04-03T08:16:50;13.30;;;11.23;;
32407;SDS011;18869;55.970;37.502;2023-04-03T08:19:18;16.57;;;11.30;;
32407;SDS011;18869;55.970;37.502;2023-04-03T08:21:48;13.80;;;10.60;;
32407;SDS011;18869;55.970;37.502;2023-04-03T08:24:15;21.53;;;11.30;;
32407;SDS011;18869;55.970;37.502;2023-04-03T08:26:43;17.27;;;10.93;;
32407;SDS011;18869;55.970;37.502;2023-04-03T08:29:12;18.33;;;11.17;;
32407;SDS011;18869;55.970;37.502;2023-04-03T08:31:39;12.73;;;9.00;;
32407;SDS011;18869;55.970;37.502;2023-04-03T08:34:07;17.43;;;10.20;;
32407;SDS011;18869;55.970;37.502;2023-04-03T08:36:34;12.70;;;9.73;;
32407;SDS011;18869;55.970;37.502;2023-04-03T08:39:02;15.77;;;9.73;;
32407;SDS011;18869;55.970;37.502;2023-04-03T08:41:31;16.20;;;9.73;;
32407;SDS011;18869;55.970;37.502;2023-04-03T08:44:03;13.10;;;9.70;;
32407;SDS011;18869;55.970;37.502;2023-04-03T08:46:45;14.40;;;10.03;;
32407;SDS011;18869;55.970;37.502;2023-04-03T08:49:21;13.00;;;9.63;;
32407;SDS011;18869;55.970;37.502;2023-04-03T08:51:52;14.80;;;10.13;;
32407;SDS011;18869;55.970;37.502;2023-04-03T08:54:23;11.20;;;8.93;;
32407;SDS011;18869;55.970;37.502;2023-04-03T08:56:53;12.80;;;8.23;;
32407;SDS011;18869;55.970;37.502;2023-04-03T08:59:28;12.17;;;10.07;;
32407;SDS011;18869;55.970;37.502;2023-04-03T09:01:57;14.00;;;9.13;;
32407;SDS011;18869;55.970;37.502;2023-04-03T09:04:30;11.23;;;8.67;;
32407;SDS011;18869;55.970;37.502;2023-04-03T09:07:00;11.13;;;9.07;;
32407;SDS011;18869;55.970;37.502;2023-04-03T09:09:31;14.63;;;8.70;;
32407;SDS011;18869;55.970;37.502;2023-04-03T09:12:03;13.30;;;9.43;;
32407;SDS011;18869;55.970;37.502;2023-04-03T09:14:39;13.90;;;8.83;;
32407;SDS011;18869;55.970;37.502;2023-04-03T09:17:11;13.60;;;9.13;;
32407;SDS011;18869;55.970;37.502;2023-04-03T09:19:45;14.57;;;9.93;;
32407;SDS011;18869;55.970;37.502;2023-04-03T09:22:18;13.07;;;8.77;;
32407;SDS011;18869;55.970;37.502;2023-04-03T09:24:49;11.60;;;8.80;;
32407;SDS011;18869;55.970;37.502;2023-04-03T09:27:22;12.67;;;8.63;;
32407;SDS011;18869;55.970;37.502;2023-04-03T09:29:52;11.83;;;8.43;;
32407;SDS011;18869;55.970;37.502;2023-04-03T09:32:22;13.13;;;9.40;;
32407;SDS011;18869;55.970;37.502;2023-04-03T09:34:54;13.67;;;8.57;;
32407;SDS011;18869;55.970;37.502;2023-04-03T09:37:33;14.03;;;9.17;;
32407;SDS011;18869;55.970;37.502;2023-04-03T09:40:12;12.53;;;8.20;;
32407;SDS011;18869;55.970;37.502;2023-04-03T09:42:56;12.07;;;8.60;;
32407;SDS011;18869;55.970;37.502;2023-04-03T09:45:29;10.50;;;8.57;;
32407;SDS011;18869;55.970;37.502;2023-04-03T09:48:06;9.77;;;8.50;;
32407;SDS011;18869;55.970;37.502;2023-04-03T09:50:36;10.50;;;8.63;;
32407;SDS011;18869;55.970;37.502;2023-04-03T09:53:05;16.00;;;9.20;;
32407;SDS011;18869;55.970;37.502;2023-04-03T09:55:41;18.00;;;11.00;;
32407;SDS011;18869;55.970;37.502;2023-04-03T09:58:24;14.47;;;9.00;;
32407;SDS011;18869;55.970;37.502;2023-04-03T10:00:55;12.30;;;8.80;;
32407;SDS011;18869;55.970;37.502;2023-04-03T10:03:24;15.47;;;9.50;;
32407;SDS011;18869;55.970;37.502;2023-04-03T10:05:55;10.83;;;9.23;;
32407;SDS011;18869;55.970;37.502;2023-04-03T10:08:25;12.03;;;9.37;;
32407;SDS011;18869;55.970;37.502;2023-04-03T10:13:52;11.33;;;9.07;;
32407;SDS011;18869;55.970;37.502;2023-04-03T10:16:25;15.13;;;8.57;;
32407;SDS011;18869;55.970;37.502;2023-04-03T10:19:05;14.07;;;10.27;;
32407;SDS011;18869;55.970;37.502;2023-04-03T10:21:44;12.47;;;9.03;;
32407;SDS011;18869;55.970;37.502;2023-04-03T10:24:13;17.50;;;10.73;;
32407;SDS011;18869;55.970;37.502;2023-04-03T10:26:46;18.00;;;11.63;;
32407;SDS011;18869;55.970;37.502;2023-04-03T10:29:25;15.63;;;10.17;;
32407;SDS011;18869;55.970;37.502;2023-04-03T10:32:01;16.10;;;11.47;;
32407;SDS011;18869;55.970;37.502;2023-04-03T10:34:35;14.93;;;11.70;;
32407;SDS011;18869;55.970;37.502;2023-04-03T10:37:10;15.10;;;11.23;;
32407;SDS011;18869;55.970;37.502;2023-04-03T10:39:43;16.13;;;12.07;;
32407;SDS011;18869;55.970;37.502;2023-04-03T10:42:18;18.83;;;11.57;;
32407;SDS011;18869;55.970;37.502;2023-04-03T10:45:03;14.87;;;11.90;;
32407;SDS011;18869;55.970;37.502;2023-04-03T10:47:45;19.40;;;12.07;;
32407;SDS011;18869;55.970;37.502;2023-04-03T10:50:27;14.83;;;11.73;;
32407;SDS011;18869;55.970;37.502;2023-04-03T10:53:01;20.60;;;12.20;;
32407;SDS011;18869;55.970;37.502;2023-04-03T10:55:35;18.07;;;12.23;;
32407;SDS011;18869;55.970;37.502;2023-04-03T10:58:05;17.87;;;12.57;;
32407;SDS011;18869;55.970;37.502;2023-04-03T11:00:36;24.23;;;14.17;;
32407;SDS011;18869;55.970;37.502;2023-04-03T11:03:10;20.17;;;14.20;;
32407;SDS011;18869;55.970;37.502;2023-04-03T11:05:43;18.33;;;13.30;;
32407;SDS011;18869;55.970;37.502;2023-04-03T11:08:28;25.53;;;15.87;;
32407;SDS011;18869;55.970;37.502;2023-04-03T11:10:58;23.53;;;14.37;;
32407;SDS011;18869;55.970;37.502;2023-04-03T11:13:30;22.07;;;14.50;;
32407;SDS011;18869;55.970;37.502;2023-04-03T11:16:00;23.83;;;15.53;;
32407;SDS011;18869;55.970;37.502;2023-04-03T11:18:32;18.63;;;13.60;;
32407;SDS011;18869;55.970;37.502;2023-04-03T11:21:04;19.57;;;15.17;;
32407;SDS011;18869;55.970;37.502;2023-04-03T11:23:36;19.93;;;14.40;;
32407;SDS011;18869;55.970;37.502;2023-04-03T11:26:07;22.43;;;14.43;;
32407;SDS011;18869;55.970;37.502;2023-04-03T11:28:36;21.07;;;15.67;;
32407;SDS011;18869;55.970;37.502;2023-04-03T11:31:08;27.33;;;18.27;;
32407;SDS011;18869;55.970;37.502;2023-04-03T11:33:45;26.73;;;18.07;;
32407;SDS011;18869;55.970;37.502;2023-04-03T11:36:18;23.23;;;17.17;;
32407;SDS011;18869;55.970;37.502;2023-04-03T11:38:49;21.77;;;14.20;;
32407;SDS011;18869;55.970;37.502;2023-04-03T11:41:23;20.60;;;13.90;;
32407;SDS011;18869;55.970;37.502;2023-04-03T11:43:57;15.00;;;11.70;;
32407;SDS011;18869;55.970;37.502;2023-04-03T11:58:21;13.63;;;10.50;;
32407;SDS011;18869;55.970;37.502;2023-04-03T12:00:58;14.07;;;10.67;;
32407;SDS011;18869;55.970;37.502;2023-04-03T12:06:49;13.77;;;10.07;;
32407;SDS011;18869;55.970;37.502;2023-04-03T12:09:22;14.70;;;11.00;;
32407;SDS011;18869;55.970;37.502;2023-04-03T12:11:52;18.57;;;11.43;;
32407;SDS011;18869;55.970;37.502;2023-04-03T12:14:21;17.97;;;11.07;;
32407;SDS011;18869;55.970;37.502;2023-04-03T12:16:50;20.97;;;10.90;;
32407;SDS011;18869;55.970;37.502;2023-04-03T12:19:35;17.30;;;10.27;;
32407;SDS011;18869;55.970;37.502;2023-04-03T12:22:09;12.23;;;8.80;;
32407;SDS011;18869;55.970;37.502;2023-04-03T12:24:38;12.93;;;8.27;;
32407;SDS011;18869;55.970;37.502;2023-04-03T12:27:20;11.30;;;8.87;;
32407;SDS011;18869;55.970;37.502;2023-04-03T12:29:51;15.83;;;9.37;;
32407;SDS011;18869;55.970;37.502;2023-04-03T12:32:26;14.50;;;9.03;;
32407;SDS011;18869;55.970;37.502;2023-04-03T12:35:09;15.37;;;8.37;;
32407;SDS011;18869;55.970;37.502;2023-04-03T12:37:57;9.07;;;7.93;;
32407;SDS011;18869;55.970;37.502;2023-04-03T12:40:46;12.87;;;8.37;;
32407;SDS011;18869;55.970;37.502;2023-04-03T12:43:22;9.77;;;7.70;;
32407;SDS011;18869;55.970;37.502;2023-04-03T12:45:57;10.27;;;7.70;;
32407;SDS011;18869;55.970;37.502;2023-04-03T12:48:28;12.47;;;7.77;;
32407;SDS011;18869;55.970;37.502;2023-04-03T12:50:57;15.77;;;9.47;;
32407;SDS011;18869;55.970;37.502;2023-04-03T12:53:27;12.70;;;8.17;;
32407;SDS011;18869;55.970;37.502;2023-04-03T12:56:18;10.13;;;6.97;;
32407;SDS011;18869;55.970;37.502;2023-04-03T12:58:46;14.43;;;6.93;;
32407;SDS011;18869;55.970;37.502;2023-04-03T13:01:14;10.23;;;7.33;;
32407;SDS011;18869;55.970;37.502;2023-04-03T13:03:44;12.20;;;6.97;;
32407;SDS011;18869;55.970;37.502;2023-04-03T13:06:14;10.07;;;6.67;;
32407;SDS011;18869;55.970;37.502;2023-04-03T13:08:50;13.17;;;6.93;;
32407;SDS011;18869;55.970;37.502;2023-04-03T13:11:19;8.30;;;6.57;;
32407;SDS011;18869;55.970;37.502;2023-04-03T13:13:56;8.00;;;6.17;;
32407;SDS011;18869;55.970;37.502;2023-04-03T13:16:24;12.53;;;5.80;;
32407;SDS011;18869;55.970;37.502;2023-04-03T13:18:52;11.23;;;6.53;;
32407;SDS011;18869;55.970;37.502;2023-04-03T13:21:21;13.90;;;6.77;;
32407;SDS011;18869;55.970;37.502;2023-04-03T13:23:52;9.87;;;5.90;;
32407;SDS011;18869;55.970;37.502;2023-04-03T13:26:24;8.23;;;6.63;;
32407;SDS011;18869;55.970;37.502;2023-04-03T13:28:54;9.83;;;6.27;;
32407;SDS011;18869;55.970;37.502;2023-04-03T13:31:26;9.00;;;7.20;;
32407;SDS011;18869;55.970;37.502;2023-04-03T13:33:57;12.17;;;7.13;;
32407;SDS011;18869;55.970;37.502;2023-04-03T13:36:26;10.27;;;6.03;;
32407;SDS011;18869;55.970;37.502;2023-04-03T13:38:59;9.87;;;6.40;;
32407;SDS011;18869;55.970;37.502;2023-04-03T13:41:47;11.40;;;6.63;;
32407;SDS011;18869;55.970;37.502;2023-04-03T13:44:25;10.77;;;6.90;;
32407;SDS011;18869;55.970;37.502;2023-04-03T13:46:56;17.77;;;7.03;;
32407;SDS011;18869;55.970;37.502;2023-04-03T13:49:29;9.67;;;7.70;;
32407;SDS011;18869;55.970;37.502;2023-04-03T13:51:59;9.40;;;6.40;;
32407;SDS011;18869;55.970;37.502;2023-04-03T13:54:30;10.83;;;7.13;;
32407;SDS011;18869;55.970;37.502;2023-04-03T13:57:00;12.57;;;7.47;;
32407;SDS011;18869;55.970;37.502;2023-04-03T13:59:29;11.87;;;8.27;;
32407;SDS011;18869;55.970;37.502;2023-04-03T14:02:09;11.80;;;7.93;;
32407;SDS011;18869;55.970;37.502;2023-04-03T14:04:46;12.20;;;7.77;;
32407;SDS011;18869;55.970;37.502;2023-04-03T14:07:18;10.73;;;8.27;;
32407;SDS011;18869;55.970;37.502;2023-04-03T14:09:48;12.63;;;8.93;;
32407;SDS011;18869;55.970;37.502;2023-04-03T14:12:17;11.13;;;7.97;;
32407;SDS011;18869;55.970;37.502;2023-04-03T14:14:48;11.73;;;9.47;;
32407;SDS011;18869;55.970;37.502;2023-04-03T14:17:16;12.93;;;8.00;;
32407;SDS011;18869;55.970;37.502;2023-04-03T14:19:45;12.43;;;8.63;;
32407;SDS011;18869;55.970;37.502;2023-04-03T14:22:15;16.00;;;9.57;;
32407;SDS011;18869;55.970;37.502;2023-04-03T14:24:44;16.00;;;9.10;;
32407;SDS011;18869;55.970;37.502;2023-04-03T14:27:17;11.97;;;8.47;;
32407;SDS011;18869;55.970;37.502;2023-04-03T14:29:47;16.13;;;10.07;;
32407;SDS011;18869;55.970;37.502;2023-04-03T14:32:16;14.47;;;11.27;;
32407;SDS011;18869;55.970;37.502;2023-04-03T14:34:44;14.07;;;11.87;;
32407;SDS011;18869;55.970;37.502;2023-04-03T14:37:13;16.60;;;12.23;;
32407;SDS011;18869;55.970;37.502;2023-04-03T14:39:43;17.50;;;12.53;;
32407;SDS011;18869;55.970;37.502;2023-04-03T14:42:12;16.10;;;11.57;;
32407;SDS011;18869;55.970;37.502;2023-04-03T14:47:48;16.03;;;11.27;;
32407;SDS011;18869;55.970;37.502;2023-04-03T14:50:19;18.10;;;11.03;;
32407;SDS011;18869;55.970;37.502;2023-04-03T14:52:49;12.87;;;10.33;;
32407;SDS011;18869;55.970;37.502;2023-04-03T14:55:20;12.90;;;10.67;;
32407;SDS011;18869;55.970;37.502;2023-04-03T14:57:49;17.37;;;11.00;;